createdAt,value
2023-04-18T00:00:52.232Z,0
2023-04-18T00:01:52.899Z,0
2023-04-18T00:02:53.690Z,0
2023-04-18T00:03:54.511Z,0
2023-04-18T00:04:55.203Z,0
2023-04-18T00:05:55.775Z,0
2023-04-18T00:06:56.376Z,0
2023-04-18T00:07:56.978Z,0
2023-04-18T00:08:57.608Z,0
2023-04-18T00:09:58.167Z,0
2023-04-18T00:10:58.760Z,0
2023-04-18T00:11:59.444Z,0
2023-04-18T00:12:59.960Z,0
2023-04-18T00:14:00.558Z,0
2023-04-18T00:15:01.144Z,0
2023-04-18T00:16:01.772Z,0
2023-04-18T00:17:02.424Z,0
2023-04-18T00:18:03.127Z,0
2023-04-18T00:19:03.603Z,0
2023-04-18T00:20:04.198Z,0
2023-04-18T00:21:04.820Z,0
2023-04-18T00:22:05.424Z,0
2023-04-18T00:23:06.028Z,0
2023-04-18T00:24:06.629Z,0
2023-04-18T00:25:07.222Z,0
2023-04-18T00:26:07.828Z,0
2023-04-18T00:27:08.409Z,0
2023-04-18T00:28:09.006Z,0
2023-04-18T00:29:09.593Z,0
2023-04-18T00:30:10.196Z,0
2023-04-18T00:31:10.819Z,0
2023-04-18T00:32:11.409Z,0
2023-04-18T00:33:12.000Z,0
2023-04-18T00:34:12.779Z,0
2023-04-18T00:35:13.558Z,0
2023-04-18T00:36:14.118Z,0
2023-04-18T00:37:14.725Z,0
2023-04-18T00:38:15.331Z,0
2023-04-18T00:39:15.918Z,0
2023-04-18T00:40:16.600Z,0
2023-04-18T00:41:17.148Z,0
2023-04-18T00:42:17.743Z,0
2023-04-18T00:43:18.338Z,0
2023-04-18T00:44:18.948Z,0
2023-04-18T00:45:19.548Z,0
2023-04-18T00:46:20.201Z,0
2023-04-18T00:47:20.794Z,0
2023-04-18T00:48:21.354Z,0
2023-04-18T00:49:21.945Z,0
2023-04-18T00:50:22.541Z,0
2023-04-18T00:51:23.139Z,0
2023-04-18T00:52:23.753Z,0
2023-04-18T00:53:24.345Z,0
2023-04-18T00:54:24.946Z,0
2023-04-18T00:55:25.527Z,0
2023-04-18T00:56:26.149Z,0
2023-04-18T00:57:26.734Z,0
2023-04-18T00:58:27.377Z,0
2023-04-18T00:59:27.934Z,0
2023-04-18T01:00:28.534Z,0
2023-04-18T01:01:29.158Z,0
2023-04-18T01:02:29.870Z,0
2023-04-18T01:03:30.730Z,0
2023-04-18T01:04:31.461Z,0
2023-04-18T01:05:32.088Z,0
2023-04-18T01:06:32.690Z,0
2023-04-18T01:07:33.328Z,0
2023-04-18T01:08:33.902Z,0
2023-04-18T01:09:34.497Z,0
2023-04-18T01:10:35.090Z,0
2023-04-18T01:11:35.682Z,0
2023-04-18T01:12:36.274Z,0
2023-04-18T01:13:36.871Z,0
2023-04-18T01:14:37.463Z,0
2023-04-18T01:15:38.088Z,0
2023-04-18T01:16:38.676Z,0
2023-04-18T01:17:39.314Z,0
2023-04-18T01:18:39.884Z,0
2023-04-18T01:19:40.474Z,0
2023-04-18T01:20:41.064Z,0
2023-04-18T01:21:41.656Z,0
2023-04-18T01:22:42.269Z,0
2023-04-18T01:23:42.864Z,0
2023-04-18T01:24:43.470Z,0
2023-04-18T01:25:44.055Z,0
2023-04-18T01:26:44.663Z,0
2023-04-18T01:27:45.237Z,0
2023-04-18T01:28:45.840Z,0
2023-04-18T01:29:46.418Z,0
2023-04-18T01:30:47.030Z,0
2023-04-18T01:31:47.644Z,0
2023-04-18T01:32:48.281Z,0
2023-04-18T01:33:48.847Z,0
2023-04-18T01:34:49.444Z,0
2023-04-18T01:35:50.043Z,0
2023-04-18T01:36:50.639Z,0
2023-04-18T01:37:51.217Z,0
2023-04-18T01:38:51.830Z,0
2023-04-18T01:39:52.429Z,0
2023-04-18T01:40:53.020Z,0
2023-04-18T01:41:53.610Z,0
2023-04-18T01:42:54.223Z,0
2023-04-18T01:43:54.814Z,0
2023-04-18T01:44:55.407Z,0
2023-04-18T01:45:55.999Z,0
2023-04-18T01:46:56.708Z,0
2023-04-18T01:47:57.318Z,0
2023-04-18T01:48:57.908Z,0
2023-04-18T01:49:58.500Z,0
2023-04-18T01:50:59.097Z,0
2023-04-18T01:51:59.808Z,0
2023-04-18T01:53:00.409Z,0
2023-04-18T01:54:00.997Z,0
2023-04-18T01:55:01.584Z,0
2023-04-18T01:56:02.216Z,0
2023-04-18T01:57:02.787Z,0
2023-04-18T01:58:03.394Z,0
2023-04-18T01:59:03.970Z,0
2023-04-18T02:00:04.563Z,0
2023-04-18T02:01:05.205Z,0
2023-04-18T02:02:05.866Z,0
2023-04-18T02:03:06.695Z,0
2023-04-18T02:04:07.369Z,0
2023-04-18T02:05:07.935Z,0
2023-04-18T02:06:08.510Z,0
2023-04-18T02:07:09.117Z,0
2023-04-18T02:08:09.699Z,0
2023-04-18T02:09:10.301Z,0
2023-04-18T02:10:10.920Z,0
2023-04-18T02:11:11.514Z,0
2023-04-18T02:12:12.092Z,0
2023-04-18T02:13:12.713Z,0
2023-04-18T02:14:13.437Z,0
2023-04-18T02:15:14.147Z,0
2023-04-18T02:16:14.773Z,0
2023-04-18T02:17:15.363Z,0
2023-04-18T02:18:15.955Z,0
2023-04-18T02:19:16.548Z,0
2023-04-18T02:20:17.200Z,0
2023-04-18T02:21:17.742Z,0
2023-04-18T02:22:18.342Z,0
2023-04-18T02:23:18.940Z,0
2023-04-18T02:24:19.552Z,0
2023-04-18T02:25:20.148Z,0
2023-04-18T02:26:20.737Z,0
2023-04-18T02:27:21.331Z,0
2023-04-18T02:28:22.005Z,0
2023-04-18T02:29:22.531Z,0
2023-04-18T02:30:23.122Z,0
2023-04-18T02:31:23.773Z,0
2023-04-18T02:32:24.350Z,0
2023-04-18T02:33:24.950Z,0
2023-04-18T02:34:25.546Z,0
2023-04-18T02:35:26.165Z,0
2023-04-18T02:36:26.744Z,0
2023-04-18T02:37:27.338Z,0
2023-04-18T02:38:27.943Z,0
2023-04-18T02:39:28.545Z,0
2023-04-18T02:40:29.135Z,0
2023-04-18T02:41:29.748Z,0
2023-04-18T02:42:30.346Z,0
2023-04-18T02:43:30.954Z,0
2023-04-18T02:44:31.548Z,0
2023-04-18T02:45:32.159Z,0
2023-04-18T02:46:32.750Z,0
2023-04-18T02:47:40.532Z,0
2023-04-18T02:48:34.987Z,0
2023-04-18T02:49:35.541Z,0
2023-04-18T02:50:36.141Z,0
2023-04-18T02:51:36.729Z,0
2023-04-18T02:52:37.339Z,0
2023-04-18T02:53:37.945Z,0
2023-04-18T02:54:38.532Z,0
2023-04-18T02:55:39.142Z,0
2023-04-18T02:56:39.757Z,0
2023-04-18T02:57:40.327Z,0
2023-04-18T02:58:40.937Z,0
2023-04-18T02:59:41.530Z,0
2023-04-18T03:00:42.144Z,0
2023-04-18T03:01:42.801Z,0
2023-04-18T03:02:43.536Z,0
2023-04-18T03:03:44.189Z,0
2023-04-18T03:04:44.830Z,0
2023-04-18T03:05:45.390Z,0
2023-04-18T03:06:45.981Z,0
2023-04-18T03:07:46.576Z,0
2023-04-18T03:08:47.171Z,0
2023-04-18T03:09:47.764Z,0
2023-04-18T03:10:48.356Z,0
2023-04-18T03:11:48.949Z,0
2023-04-18T03:12:49.550Z,0
2023-04-18T03:13:50.144Z,0
2023-04-18T03:14:50.728Z,0
2023-04-18T03:15:51.373Z,0
2023-04-18T03:16:53.885Z,0
2023-04-18T03:17:53.575Z,0
2023-04-18T03:18:54.143Z,0
2023-04-18T03:19:54.763Z,0
2023-04-18T03:20:55.350Z,0
2023-04-18T03:21:55.942Z,0
2023-04-18T03:22:56.536Z,0
2023-04-18T03:23:57.127Z,0
2023-04-18T03:24:57.730Z,0
2023-04-18T03:25:58.326Z,0
2023-04-18T03:26:58.932Z,0
2023-04-18T03:27:59.526Z,0
2023-04-18T03:29:00.128Z,0
2023-04-18T03:30:00.708Z,0
2023-04-18T03:31:01.336Z,0
2023-04-18T03:32:01.969Z,0
2023-04-18T03:33:02.598Z,0
2023-04-18T03:34:03.146Z,0
2023-04-18T03:35:03.751Z,0
2023-04-18T03:36:04.336Z,0
2023-04-18T03:37:04.945Z,0
2023-04-18T03:38:05.547Z,0
2023-04-18T03:39:06.162Z,0
2023-04-18T03:40:06.761Z,0
2023-04-18T03:41:07.340Z,0
2023-04-18T03:42:07.939Z,0
2023-04-18T03:43:08.534Z,0
2023-04-18T03:44:09.130Z,0
2023-04-18T03:45:09.726Z,0
2023-04-18T03:46:10.370Z,0
2023-04-18T03:47:10.933Z,0
2023-04-18T03:48:11.550Z,0
2023-04-18T03:49:12.148Z,0
2023-04-18T03:50:12.744Z,0
2023-04-18T03:51:13.334Z,0
2023-04-18T03:52:13.928Z,0
2023-04-18T03:53:14.523Z,4
2023-04-18T03:54:15.219Z,4
2023-04-18T03:55:15.986Z,0
2023-04-18T03:56:16.585Z,0
2023-04-18T03:57:17.170Z,4
2023-04-18T03:58:17.768Z,4
2023-04-18T03:59:18.384Z,4
2023-04-18T04:00:18.983Z,4
2023-04-18T04:01:19.597Z,4
2023-04-18T04:02:20.302Z,4
2023-04-18T04:03:20.916Z,8
2023-04-18T04:04:21.590Z,8
2023-04-18T04:05:22.105Z,12
2023-04-18T04:06:22.720Z,20
2023-04-18T04:07:23.324Z,32
2023-04-18T04:08:23.914Z,48
2023-04-18T04:09:24.528Z,56
2023-04-18T04:10:25.119Z,52
2023-04-18T04:11:25.712Z,40
2023-04-18T04:12:26.406Z,44
2023-04-18T04:13:26.946Z,56
2023-04-18T04:14:27.542Z,60
2023-04-18T04:15:28.140Z,60
2023-04-18T04:16:28.769Z,60
2023-04-18T04:17:29.397Z,68
2023-04-18T04:18:29.943Z,96
2023-04-18T04:19:30.575Z,112
2023-04-18T04:20:31.169Z,104
2023-04-18T04:21:31.754Z,88
2023-04-18T04:22:32.354Z,96
2023-04-18T04:23:32.950Z,104
2023-04-18T04:24:33.557Z,112
2023-04-18T04:25:34.148Z,120
2023-04-18T04:26:34.765Z,156
2023-04-18T04:27:35.366Z,168
2023-04-18T04:28:36.005Z,164
2023-04-18T04:29:36.634Z,164
2023-04-18T04:30:37.211Z,196
2023-04-18T04:31:37.857Z,192
2023-04-18T04:32:38.474Z,212
2023-04-18T04:33:39.163Z,224
2023-04-18T04:34:39.744Z,252
2023-04-18T04:35:40.338Z,204
2023-04-18T04:36:40.935Z,184
2023-04-18T04:37:41.529Z,224
2023-04-18T04:38:42.127Z,212
2023-04-18T04:39:42.752Z,216
2023-04-18T04:40:43.382Z,252
2023-04-18T04:41:43.990Z,252
2023-04-18T04:42:44.584Z,248
2023-04-18T04:43:45.200Z,284
2023-04-18T04:44:45.852Z,288
2023-04-18T04:45:46.463Z,312
2023-04-18T04:46:47.006Z,340
2023-04-18T04:47:47.623Z,296
2023-04-18T04:48:48.219Z,276
2023-04-18T04:49:48.819Z,276
2023-04-18T04:50:49.422Z,296
2023-04-18T04:51:50.016Z,308
2023-04-18T04:52:50.614Z,276
2023-04-18T04:53:51.232Z,328
2023-04-18T04:54:51.828Z,376
2023-04-18T04:55:52.423Z,384
2023-04-18T04:56:53.039Z,392
2023-04-18T04:57:53.620Z,416
2023-04-18T04:58:54.254Z,416
2023-04-18T04:59:54.845Z,448
2023-04-18T05:00:55.452Z,476
2023-04-18T05:01:56.075Z,496
2023-04-18T05:02:56.814Z,468
2023-04-18T05:03:57.481Z,632
2023-04-18T05:04:58.137Z,592
2023-04-18T05:05:58.736Z,544
2023-04-18T05:06:59.375Z,596
2023-04-18T05:07:59.955Z,668
2023-04-18T05:09:00.555Z,572
2023-04-18T05:10:01.168Z,692
2023-04-18T05:11:01.755Z,808
2023-04-18T05:12:02.361Z,712
2023-04-18T05:13:02.968Z,728
2023-04-18T05:14:03.570Z,796
2023-04-18T05:15:04.226Z,812
2023-04-18T05:16:04.815Z,1104
2023-04-18T05:17:05.434Z,1120
2023-04-18T05:18:06.050Z,1304
2023-04-18T05:19:06.620Z,1488
2023-04-18T05:20:07.230Z,1572
2023-04-18T05:21:07.842Z,1448
2023-04-18T05:22:08.435Z,1496
2023-04-18T05:23:09.041Z,1324
2023-04-18T05:24:09.638Z,1128
2023-04-18T05:25:10.236Z,1180
2023-04-18T05:26:10.834Z,1104
2023-04-18T05:27:11.450Z,1120
2023-04-18T05:28:12.052Z,1172
2023-04-18T05:29:12.649Z,1124
2023-04-18T05:30:13.249Z,1136
2023-04-18T05:31:13.883Z,1288
2023-04-18T05:32:14.514Z,1388
2023-04-18T05:33:15.113Z,1504
2023-04-18T05:34:15.920Z,1628
2023-04-18T05:35:16.611Z,2484
2023-04-18T05:36:17.215Z,3108
2023-04-18T05:37:17.823Z,2528
2023-04-18T05:38:18.441Z,2372
2023-04-18T05:39:19.040Z,2268
2023-04-18T05:40:19.642Z,1868
2023-04-18T05:41:20.241Z,2056
2023-04-18T05:42:20.843Z,2036
2023-04-18T05:43:21.441Z,2044
2023-04-18T05:44:22.291Z,2188
2023-04-18T05:45:22.848Z,1920
2023-04-18T05:46:23.465Z,1904
2023-04-18T05:47:24.156Z,1764
2023-04-18T05:48:24.740Z,1980
2023-04-18T05:49:25.340Z,2012
2023-04-18T05:50:25.952Z,1868
2023-04-18T05:51:26.560Z,1960
2023-04-18T05:52:27.160Z,1988
2023-04-18T05:53:27.757Z,1956
2023-04-18T05:54:28.366Z,2104
2023-04-18T05:55:28.979Z,2536
2023-04-18T05:56:29.595Z,2696
2023-04-18T05:57:30.194Z,2780
2023-04-18T05:58:30.817Z,3440
2023-04-18T05:59:31.416Z,3532
2023-04-18T06:00:32.083Z,3284
2023-04-18T06:01:32.665Z,3336
2023-04-18T06:02:33.372Z,3336
2023-04-18T06:03:34.267Z,3260
2023-04-18T06:04:34.977Z,3852
2023-04-18T06:05:35.694Z,3756
2023-04-18T06:06:36.304Z,3300
2023-04-18T06:07:36.917Z,3228
2023-04-18T06:08:37.504Z,3700
2023-04-18T06:09:38.107Z,3312
2023-04-18T06:10:39.397Z,3748
2023-04-18T06:11:39.968Z,3588
2023-04-18T06:12:40.588Z,3408
2023-04-18T06:13:41.187Z,3540
2023-04-18T06:14:41.790Z,3436
2023-04-18T06:15:42.435Z,3216
2023-04-18T06:16:43.090Z,3268
2023-04-18T06:17:43.658Z,3524
2023-04-18T06:18:44.251Z,3624
2023-04-18T06:19:44.851Z,3324
2023-04-18T06:20:45.476Z,3208
2023-04-18T06:21:46.059Z,2800
2023-04-18T06:22:46.662Z,2796
2023-04-18T06:23:47.253Z,3324
2023-04-18T06:24:47.876Z,2784
2023-04-18T06:25:48.477Z,2632
2023-04-18T06:26:49.111Z,3084
2023-04-18T06:27:49.717Z,3588
2023-04-18T06:28:50.318Z,4524
2023-04-18T06:29:50.916Z,4436
2023-04-18T06:30:51.516Z,5024
2023-04-18T06:31:52.258Z,5536
2023-04-18T06:32:53.029Z,6364
2023-04-18T06:33:53.491Z,7140
2023-04-18T06:34:54.110Z,7756
2023-04-18T06:35:54.751Z,9152
2023-04-18T06:36:55.334Z,8804
2023-04-18T06:37:55.929Z,8348
2023-04-18T06:38:56.530Z,8824
2023-04-18T06:39:57.140Z,8628
2023-04-18T06:40:57.730Z,7736
2023-04-18T06:41:58.340Z,6700
2023-04-18T06:42:58.932Z,6728
2023-04-18T06:44:03.993Z,8268
2023-04-18T06:45:01.020Z,7220
2023-04-18T06:46:01.773Z,6752
2023-04-18T06:47:02.225Z,7980
2023-04-18T06:48:02.898Z,8172
2023-04-18T06:49:03.465Z,8352
2023-04-18T06:50:04.062Z,8892
2023-04-18T06:51:04.664Z,9384
2023-04-18T06:52:05.264Z,8140
2023-04-18T06:53:05.872Z,6216
2023-04-18T06:54:06.521Z,5852
2023-04-18T06:55:07.130Z,7604
2023-04-18T06:56:07.735Z,7916
2023-04-18T06:57:08.361Z,5960
2023-04-18T06:58:08.963Z,6032
2023-04-18T06:59:09.565Z,5840
2023-04-18T07:00:10.182Z,6544
2023-04-18T07:01:10.989Z,6148
2023-04-18T07:02:11.503Z,6232
2023-04-18T07:03:12.278Z,6040
2023-04-18T07:04:13.289Z,5560
2023-04-18T07:05:14.149Z,5908
2023-04-18T07:06:14.742Z,6684
2023-04-18T07:07:15.346Z,6772
2023-04-18T07:08:15.946Z,6888
2023-04-18T07:09:16.563Z,7160
2023-04-18T07:10:17.166Z,8144
2023-04-18T07:11:17.765Z,8384
2023-04-18T07:12:18.365Z,8336
2023-04-18T07:13:18.968Z,8084
2023-04-18T07:14:19.569Z,7736
2023-04-18T07:15:20.167Z,8160
2023-04-18T07:16:20.836Z,7548
2023-04-18T07:17:21.442Z,6856
2023-04-18T07:18:30.601Z,6348
2023-04-18T07:19:23.587Z,6876
2023-04-18T07:20:24.189Z,7548
2023-04-18T07:21:24.793Z,8192
2023-04-18T07:22:25.409Z,7612
2023-04-18T07:23:26.009Z,7592
2023-04-18T07:24:26.653Z,8400
2023-04-18T07:25:27.229Z,9640
2023-04-18T07:26:27.836Z,10028
2023-04-18T07:27:28.474Z,9512
2023-04-18T07:28:29.053Z,9276
2023-04-18T07:29:29.655Z,10304
2023-04-18T07:30:30.253Z,11228
2023-04-18T07:31:30.899Z,12532
2023-04-18T07:32:31.453Z,14092
2023-04-18T07:33:32.080Z,16272
2023-04-18T07:34:32.677Z,14428
2023-04-18T07:35:33.281Z,15116
2023-04-18T07:36:33.885Z,14696
2023-04-18T07:37:34.493Z,12952
2023-04-18T07:38:35.112Z,12024
2023-04-18T07:39:35.767Z,12188
2023-04-18T07:40:36.328Z,12500
2023-04-18T07:41:36.932Z,10828
2023-04-18T07:42:37.530Z,8272
2023-04-18T07:43:38.131Z,8672
2023-04-18T07:44:38.732Z,9944
2023-04-18T07:45:39.354Z,10796
2023-04-18T07:46:40.207Z,10856
2023-04-18T07:47:40.611Z,10724
2023-04-18T07:48:41.192Z,11132
2023-04-18T07:49:41.816Z,12560
2023-04-18T07:50:42.412Z,14892
2023-04-18T07:51:43.029Z,16408
2023-04-18T07:52:43.633Z,21152
2023-04-18T07:53:44.243Z,31072
2023-04-18T07:54:44.840Z,28224
2023-04-18T07:55:45.442Z,25344
2023-04-18T07:56:46.043Z,22624
2023-04-18T07:57:47.562Z,19584
2023-04-18T07:58:48.160Z,18560
2023-04-18T07:59:48.755Z,17496
2023-04-18T08:00:49.356Z,15836
2023-04-18T08:01:49.982Z,15220
2023-04-18T08:02:50.681Z,14540
2023-04-18T08:03:51.396Z,14400
2023-04-18T08:04:52.005Z,14560
2023-04-18T08:05:52.808Z,15012
2023-04-18T08:06:53.406Z,15168
2023-04-18T08:07:54.008Z,15040
2023-04-18T08:08:54.622Z,15828
2023-04-18T08:09:55.226Z,15800
2023-04-18T08:10:55.838Z,16216
2023-04-18T08:11:56.435Z,16792
2023-04-18T08:12:57.052Z,15600
2023-04-18T08:13:57.641Z,14296
2023-04-18T08:14:58.266Z,15460
2023-04-18T08:15:58.906Z,15448
2023-04-18T08:16:59.486Z,15648
2023-04-18T08:18:00.211Z,18880
2023-04-18T08:19:00.710Z,22464
2023-04-18T08:20:01.326Z,23904
2023-04-18T08:21:01.916Z,20352
2023-04-18T08:22:02.524Z,19488
2023-04-18T08:23:08.590Z,20672
2023-04-18T08:24:04.719Z,20768
2023-04-18T08:25:05.841Z,21120
2023-04-18T08:26:06.513Z,21056
2023-04-18T08:27:07.123Z,22656
2023-04-18T08:28:07.740Z,22656
2023-04-18T08:29:08.341Z,24768
2023-04-18T08:30:08.942Z,24960
2023-04-18T08:31:09.565Z,21888
2023-04-18T08:32:10.307Z,20480
2023-04-18T08:33:10.893Z,20384
2023-04-18T08:34:11.458Z,19072
2023-04-18T08:35:12.078Z,17880
2023-04-18T08:36:12.679Z,18100
2023-04-18T08:37:13.300Z,19680
2023-04-18T08:38:13.902Z,21952
2023-04-18T08:39:14.818Z,22048
2023-04-18T08:40:15.507Z,20992
2023-04-18T08:41:16.127Z,20480
2023-04-18T08:42:16.726Z,22464
2023-04-18T08:43:17.346Z,24128
2023-04-18T08:44:17.949Z,25536
2023-04-18T08:45:18.551Z,27520
2023-04-18T08:46:19.260Z,24704
2023-04-18T08:47:19.832Z,24288
2023-04-18T08:48:20.453Z,25088
2023-04-18T08:49:21.056Z,26144
2023-04-18T08:50:21.654Z,27232
2023-04-18T08:51:22.253Z,28576
2023-04-18T08:52:22.875Z,35296
2023-04-18T08:53:23.485Z,39872
2023-04-18T08:54:25.558Z,41536
2023-04-18T08:55:25.675Z,39552
2023-04-18T08:56:26.279Z,40768
2023-04-18T08:57:27.010Z,40096
2023-04-18T08:58:27.589Z,36768
2023-04-18T08:59:28.190Z,41440
2023-04-18T09:00:28.789Z,52512
2023-04-18T09:01:29.412Z,58016
2023-04-18T09:02:30.148Z,48128
2023-04-18T09:03:30.684Z,44704
2023-04-18T09:04:31.312Z,50848
2023-04-18T09:05:31.979Z,40192
2023-04-18T09:06:32.581Z,39232
2023-04-18T09:07:33.181Z,41984
2023-04-18T09:08:33.812Z,40704
2023-04-18T09:09:34.409Z,36384
2023-04-18T09:10:35.034Z,38528
2023-04-18T09:11:35.646Z,39360
2023-04-18T09:12:36.237Z,36384
2023-04-18T09:13:36.826Z,28896
2023-04-18T09:14:37.437Z,25504
2023-04-18T09:15:38.078Z,26112
2023-04-18T09:16:38.686Z,26720
2023-04-18T09:17:39.361Z,28960
2023-04-18T09:18:39.894Z,25728
2023-04-18T09:19:40.505Z,22720
2023-04-18T09:20:41.243Z,22464
2023-04-18T09:21:41.932Z,22720
2023-04-18T09:22:42.538Z,22784
2023-04-18T09:23:43.141Z,23712
2023-04-18T09:24:43.737Z,25408
2023-04-18T09:25:45.066Z,26944
2023-04-18T09:26:44.966Z,28704
2023-04-18T09:27:45.565Z,28992
2023-04-18T09:28:46.166Z,27104
2023-04-18T09:29:46.893Z,24992
2023-04-18T09:30:47.656Z,24160
2023-04-18T09:31:48.225Z,26176
2023-04-18T09:32:48.873Z,26816
2023-04-18T09:33:49.443Z,24320
2023-04-18T09:34:50.043Z,23136
2023-04-18T09:35:50.648Z,27520
2023-04-18T09:36:51.304Z,34560
2023-04-18T09:37:51.894Z,36320
2023-04-18T09:38:54.626Z,41984
2023-04-18T09:39:54.095Z,37792
2023-04-18T09:40:54.744Z,37888
2023-04-18T09:41:55.347Z,40256
2023-04-18T09:42:55.962Z,38048
2023-04-18T09:43:56.575Z,35392
2023-04-18T09:44:57.177Z,40288
2023-04-18T09:45:57.826Z,45184
2023-04-18T09:46:58.417Z,49088
2023-04-18T09:47:59.054Z,43104
2023-04-18T09:48:59.646Z,60032
2023-04-18T09:50:00.294Z,80256
2023-04-18T09:51:00.899Z,62976
2023-04-18T09:52:01.503Z,56608
2023-04-18T09:53:02.129Z,69824
2023-04-18T09:54:02.726Z,57856
2023-04-18T09:55:03.328Z,61120
2023-04-18T09:56:03.932Z,53088
2023-04-18T09:57:04.533Z,75392
2023-04-18T09:58:05.152Z,135616
2023-04-18T09:59:05.739Z,76960
2023-04-18T10:00:06.362Z,122688
2023-04-18T10:01:07.019Z,134688
2023-04-18T10:02:07.657Z,136736
2023-04-18T10:03:08.414Z,132640
2023-04-18T10:04:09.109Z,115488
2023-04-18T10:05:09.754Z,123936
2023-04-18T10:06:10.340Z,98784
2023-04-18T10:07:10.941Z,45216
2023-04-18T10:08:11.544Z,41728
2023-04-18T10:09:12.324Z,46816
2023-04-18T10:10:12.995Z,44576
2023-04-18T10:11:13.593Z,43680
2023-04-18T10:12:14.210Z,39648
2023-04-18T10:13:14.828Z,39808
2023-04-18T10:14:15.653Z,52736
2023-04-18T10:15:16.468Z,47616
2023-04-18T10:16:17.184Z,43808
2023-04-18T10:17:17.775Z,44224
2023-04-18T10:18:18.416Z,45824
2023-04-18T10:19:18.985Z,47360
2023-04-18T10:20:19.586Z,46176
2023-04-18T10:21:20.209Z,42016
2023-04-18T10:22:20.829Z,35104
2023-04-18T10:23:21.435Z,31840
2023-04-18T10:24:22.033Z,30112
2023-04-18T10:25:22.633Z,30144
2023-04-18T10:26:23.235Z,30080
2023-04-18T10:27:23.853Z,29600
2023-04-18T10:28:24.465Z,35168
2023-04-18T10:29:25.077Z,39200
2023-04-18T10:30:25.678Z,36352
2023-04-18T10:31:26.371Z,41152
2023-04-18T10:32:26.937Z,45376
2023-04-18T10:33:31.997Z,49760
2023-04-18T10:34:29.022Z,59360
2023-04-18T10:35:29.617Z,63360
2023-04-18T10:36:30.271Z,75904
2023-04-18T10:37:30.832Z,48416
2023-04-18T10:38:31.439Z,47136
2023-04-18T10:39:32.049Z,47264
2023-04-18T10:40:32.641Z,50592
2023-04-18T10:41:33.284Z,67232
2023-04-18T10:42:33.876Z,57248
2023-04-18T10:43:34.463Z,53472
2023-04-18T10:44:35.065Z,49600
2023-04-18T10:45:35.667Z,35392
2023-04-18T10:46:36.320Z,32832
2023-04-18T10:47:37.028Z,35680
2023-04-18T10:48:38.527Z,41760
2023-04-18T10:49:39.104Z,43680
2023-04-18T10:50:39.703Z,46656
2023-04-18T10:51:40.302Z,50848
2023-04-18T10:52:40.900Z,52800
2023-04-18T10:53:41.501Z,63360
2023-04-18T10:54:42.131Z,93088
2023-04-18T10:55:42.703Z,92000
2023-04-18T10:56:43.305Z,84160
2023-04-18T10:57:43.984Z,73344
2023-04-18T10:58:44.520Z,70880
2023-04-18T10:59:45.121Z,57984
2023-04-18T11:00:45.777Z,54720
2023-04-18T11:01:46.339Z,56704
2023-04-18T11:02:47.044Z,64544
2023-04-18T11:03:47.701Z,164992
2023-04-18T11:04:48.294Z,176608
2023-04-18T11:05:48.892Z,89792
2023-04-18T11:06:49.904Z,86272
2023-04-18T11:07:50.494Z,65984
2023-04-18T11:08:51.112Z,61120
2023-04-18T11:09:51.735Z,43680
2023-04-18T11:10:52.336Z,40736
2023-04-18T11:11:52.937Z,37632
2023-04-18T11:12:53.559Z,32832
2023-04-18T11:13:54.142Z,30528
2023-04-18T11:14:54.739Z,30144
2023-04-18T11:15:55.341Z,30496
2023-04-18T11:16:56.005Z,31680
2023-04-18T11:17:56.625Z,32960
2023-04-18T11:18:57.211Z,32640
2023-04-18T11:19:57.831Z,31872
2023-04-18T11:20:58.434Z,32608
2023-04-18T11:21:59.063Z,32928
2023-04-18T11:22:59.660Z,32128
2023-04-18T11:24:00.288Z,30784
2023-04-18T11:25:00.886Z,31488
2023-04-18T11:26:01.488Z,32160
2023-04-18T11:27:02.097Z,31264
2023-04-18T11:28:02.701Z,30144
2023-04-18T11:29:03.301Z,29312
2023-04-18T11:30:03.896Z,28576
2023-04-18T11:31:04.498Z,27072
2023-04-18T11:32:05.146Z,26752
2023-04-18T11:33:05.889Z,26944
2023-04-18T11:34:06.476Z,26912
2023-04-18T11:35:07.082Z,27552
2023-04-18T11:36:07.703Z,28896
2023-04-18T11:37:08.334Z,29888
2023-04-18T11:38:08.924Z,29408
2023-04-18T11:39:09.550Z,27808
2023-04-18T11:40:10.157Z,28096
2023-04-18T11:41:10.766Z,29856
2023-04-18T11:42:11.378Z,31520
2023-04-18T11:43:11.966Z,32288
2023-04-18T11:44:12.753Z,32992
2023-04-18T11:45:13.426Z,32736
2023-04-18T11:46:14.050Z,31264
2023-04-18T11:47:14.629Z,29664
2023-04-18T11:48:15.236Z,28800
2023-04-18T11:49:15.840Z,28864
2023-04-18T11:50:16.523Z,28992
2023-04-18T11:51:17.091Z,28672
2023-04-18T11:52:17.692Z,28544
2023-04-18T11:53:18.292Z,29600
2023-04-18T11:54:18.893Z,30368
2023-04-18T11:55:19.497Z,30656
2023-04-18T11:56:20.093Z,31808
2023-04-18T11:57:20.718Z,33216
2023-04-18T11:58:21.335Z,34208
2023-04-18T11:59:21.938Z,36480
2023-04-18T12:00:22.537Z,39232
2023-04-18T12:01:23.148Z,42752
2023-04-18T12:02:23.864Z,41184
2023-04-18T12:03:24.716Z,39456
2023-04-18T12:04:25.730Z,39584
2023-04-18T12:05:26.630Z,37792
2023-04-18T12:06:27.073Z,37344
2023-04-18T12:07:27.630Z,41536
2023-04-18T12:08:28.232Z,39840
2023-04-18T12:09:28.832Z,38848
2023-04-18T12:10:29.439Z,37312
2023-04-18T12:11:30.030Z,36416
2023-04-18T12:12:30.654Z,36960
2023-04-18T12:13:31.262Z,37888
2023-04-18T12:14:31.855Z,38464
2023-04-18T12:15:32.486Z,38944
2023-04-18T12:16:33.092Z,39520
2023-04-18T12:17:33.743Z,42080
2023-04-18T12:18:34.355Z,46240
2023-04-18T12:19:34.956Z,43360
2023-04-18T12:20:35.558Z,44192
2023-04-18T12:21:36.180Z,48000
2023-04-18T12:22:36.776Z,71712
2023-04-18T12:23:37.396Z,45664
2023-04-18T12:24:38.040Z,48896
2023-04-18T12:25:38.624Z,49984
2023-04-18T12:26:39.225Z,47360
2023-04-18T12:27:39.832Z,46688
2023-04-18T12:28:40.425Z,45856
2023-04-18T12:29:41.040Z,49824
2023-04-18T12:30:41.632Z,49120
2023-04-18T12:31:42.256Z,50816
2023-04-18T12:32:42.888Z,55872
2023-04-18T12:33:43.459Z,41824
2023-04-18T12:34:44.262Z,40928
2023-04-18T12:35:44.866Z,40480
2023-04-18T12:36:45.488Z,41952
2023-04-18T12:37:46.087Z,53024
2023-04-18T12:38:46.692Z,129664
2023-04-18T12:39:47.286Z,96288
2023-04-18T12:40:47.891Z,79680
2023-04-18T12:41:49.832Z,59968
2023-04-18T12:42:50.114Z,55872
2023-04-18T12:43:50.747Z,55392
2023-04-18T12:44:51.332Z,60288
2023-04-18T12:45:51.931Z,102112
2023-04-18T12:46:52.627Z,70080
2023-04-18T12:47:53.370Z,54656
2023-04-18T12:48:53.900Z,47520
2023-04-18T12:49:54.506Z,48192
2023-04-18T12:50:55.115Z,51616
2023-04-18T12:51:55.714Z,49440
2023-04-18T12:52:56.333Z,47712
2023-04-18T12:53:56.928Z,49952
2023-04-18T12:54:57.534Z,52480
2023-04-18T12:55:58.135Z,55712
2023-04-18T12:56:58.735Z,69088
2023-04-18T12:57:59.370Z,56800
2023-04-18T12:58:59.980Z,64000
2023-04-18T13:00:00.665Z,66208
2023-04-18T13:01:01.268Z,141312
2023-04-18T13:02:01.919Z,60544
2023-04-18T13:03:02.862Z,50560
2023-04-18T13:04:11.700Z,47008
2023-04-18T13:05:04.651Z,47072
2023-04-18T13:06:05.180Z,48672
2023-04-18T13:07:05.797Z,52640
2023-04-18T13:08:16.313Z,57408
2023-04-18T13:09:08.010Z,125728
2023-04-18T13:10:08.602Z,63008
2023-04-18T13:11:09.218Z,102528
2023-04-18T13:12:09.845Z,66400
2023-04-18T13:13:10.447Z,62464
2023-04-18T13:14:11.136Z,103296
2023-04-18T13:15:11.689Z,78656
2023-04-18T13:16:12.329Z,66208
2023-04-18T13:17:12.929Z,132320
2023-04-18T13:18:13.544Z,183776
2023-04-18T13:19:14.279Z,74656
2023-04-18T13:20:14.758Z,94080
2023-04-18T13:21:15.348Z,124992
2023-04-18T13:22:15.953Z,112736
2023-04-18T13:23:16.553Z,109920
2023-04-18T13:24:17.156Z,116096
2023-04-18T13:25:17.763Z,124160
2023-04-18T13:26:18.374Z,120960
2023-04-18T13:27:18.961Z,102144
2023-04-18T13:28:19.574Z,76416
2023-04-18T13:29:20.160Z,66592
2023-04-18T13:30:20.760Z,78080
2023-04-18T13:31:21.410Z,98400
2023-04-18T13:32:22.078Z,107104
2023-04-18T13:33:22.708Z,103872
2023-04-18T13:34:23.308Z,99744
2023-04-18T13:35:23.918Z,94752
2023-04-18T13:36:24.516Z,100000
2023-04-18T13:37:25.500Z,106752
2023-04-18T13:38:26.108Z,113984
2023-04-18T13:39:26.733Z,112448
2023-04-18T13:40:27.337Z,110016
2023-04-18T13:41:27.940Z,106336